sensor_id;sensor_type;location;lat;lon;timestamp;P1;durP1;ratioP1;P2;durP2;ratioP2
6292;SDS011;3179;54.350;10.102;2023-02-28T00:00:13;4.17;;;3.17;;
6292;SDS011;3179;54.350;10.102;2023-02-28T00:02:40;7.30;;;3.80;;
6292;SDS011;3179;54.350;10.102;2023-02-28T00:05:10;4.27;;;2.83;;
6292;SDS011;3179;54.350;10.102;2023-02-28T00:07:38;4.20;;;2.90;;
6292;SDS011;3179;54.350;10.102;2023-02-28T00:10:07;4.90;;;2.93;;
6292;SDS011;3179;54.350;10.102;2023-02-28T00:12:37;4.23;;;3.13;;
6292;SDS011;3179;54.350;10.102;2023-02-28T00:15:05;7.57;;;3.43;;
6292;SDS011;3179;54.350;10.102;2023-02-28T00:17:33;4.27;;;3.63;;
6292;SDS011;3179;54.350;10.102;2023-02-28T00:20:00;6.70;;;3.30;;
6292;SDS011;3179;54.350;10.102;2023-02-28T00:22:38;3.03;;;2.73;;
6292;SDS011;3179;54.350;10.102;2023-02-28T00:25:07;3.60;;;2.80;;
6292;SDS011;3179;54.350;10.102;2023-02-28T00:27:35;8.07;;;2.37;;
6292;SDS011;3179;54.350;10.102;2023-02-28T00:30:03;6.47;;;3.20;;
6292;SDS011;3179;54.350;10.102;2023-02-28T00:32:31;3.90;;;2.67;;
6292;SDS011;3179;54.350;10.102;2023-02-28T00:34:59;10.17;;;3.20;;
6292;SDS011;3179;54.350;10.102;2023-02-28T00:37:26;5.13;;;2.73;;
6292;SDS011;3179;54.350;10.102;2023-02-28T00:39:54;4.60;;;2.80;;
6292;SDS011;3179;54.350;10.102;2023-02-28T00:42:21;3.33;;;2.30;;
6292;SDS011;3179;54.350;10.102;2023-02-28T00:44:48;4.90;;;3.27;;
6292;SDS011;3179;54.350;10.102;2023-02-28T00:47:15;4.23;;;2.93;;
6292;SDS011;3179;54.350;10.102;2023-02-28T00:49:42;6.77;;;2.80;;
6292;SDS011;3179;54.350;10.102;2023-02-28T00:52:09;5.90;;;3.17;;
6292;SDS011;3179;54.350;10.102;2023-02-28T00:54:36;6.63;;;3.57;;
6292;SDS011;3179;54.350;10.102;2023-02-28T00:57:04;5.43;;;3.50;;
6292;SDS011;3179;54.350;10.102;2023-02-28T00:59:31;5.00;;;3.20;;
6292;SDS011;3179;54.350;10.102;2023-02-28T01:01:57;7.20;;;3.30;;
6292;SDS011;3179;54.350;10.102;2023-02-28T01:04:25;3.63;;;3.00;;
6292;SDS011;3179;54.350;10.102;2023-02-28T01:06:51;4.00;;;3.10;;
6292;SDS011;3179;54.350;10.102;2023-02-28T01:09:19;5.07;;;3.20;;
6292;SDS011;3179;54.350;10.102;2023-02-28T01:11:46;4.37;;;3.40;;
6292;SDS011;3179;54.350;10.102;2023-02-28T01:14:15;4.00;;;2.80;;
6292;SDS011;3179;54.350;10.102;2023-02-28T01:16:43;4.27;;;3.47;;
6292;SDS011;3179;54.350;10.102;2023-02-28T01:19:10;3.83;;;3.10;;
6292;SDS011;3179;54.350;10.102;2023-02-28T01:21:37;2.83;;;2.50;;
6292;SDS011;3179;54.350;10.102;2023-02-28T01:24:04;4.60;;;3.03;;
6292;SDS011;3179;54.350;10.102;2023-02-28T01:26:32;4.47;;;3.10;;
6292;SDS011;3179;54.350;10.102;2023-02-28T01:28:59;4.23;;;3.17;;
6292;SDS011;3179;54.350;10.102;2023-02-28T01:31:27;4.07;;;3.50;;
6292;SDS011;3179;54.350;10.102;2023-02-28T01:33:54;5.83;;;3.73;;
6292;SDS011;3179;54.350;10.102;2023-02-28T01:36:21;10.00;;;3.80;;
6292;SDS011;3179;54.350;10.102;2023-02-28T01:38:49;5.33;;;3.30;;
6292;SDS011;3179;54.350;10.102;2023-02-28T01:41:17;5.10;;;3.13;;
6292;SDS011;3179;54.350;10.102;2023-02-28T01:43:53;4.50;;;2.60;;
6292;SDS011;3179;54.350;10.102;2023-02-28T01:46:22;7.60;;;3.43;;
6292;SDS011;3179;54.350;10.102;2023-02-28T01:48:51;4.93;;;3.07;;
6292;SDS011;3179;54.350;10.102;2023-02-28T01:51:20;3.73;;;2.90;;
6292;SDS011;3179;54.350;10.102;2023-02-28T01:53:51;6.33;;;2.90;;
6292;SDS011;3179;54.350;10.102;2023-02-28T01:56:22;6.73;;;3.27;;
6292;SDS011;3179;54.350;10.102;2023-02-28T01:58:52;5.93;;;3.13;;
6292;SDS011;3179;54.350;10.102;2023-02-28T02:01:20;5.10;;;3.20;;
6292;SDS011;3179;54.350;10.102;2023-02-28T02:03:50;4.10;;;2.80;;
6292;SDS011;3179;54.350;10.102;2023-02-28T02:06:20;4.27;;;2.73;;
6292;SDS011;3179;54.350;10.102;2023-02-28T02:08:48;4.33;;;3.20;;
6292;SDS011;3179;54.350;10.102;2023-02-28T02:11:15;4.17;;;3.23;;
6292;SDS011;3179;54.350;10.102;2023-02-28T02:13:54;3.40;;;3.10;;
6292;SDS011;3179;54.350;10.102;2023-02-28T02:16:37;5.63;;;3.03;;
6292;SDS011;3179;54.350;10.102;2023-02-28T02:19:17;4.93;;;3.23;;
6292;SDS011;3179;54.350;10.102;2023-02-28T02:22:07;4.67;;;2.73;;
6292;SDS011;3179;54.350;10.102;2023-02-28T02:25:06;5.60;;;3.17;;
6292;SDS011;3179;54.350;10.102;2023-02-28T02:27:50;3.67;;;3.03;;
6292;SDS011;3179;54.350;10.102;2023-02-28T02:37:11;4.53;;;2.37;;
6292;SDS011;3179;54.350;10.102;2023-02-28T02:39:47;3.93;;;3.30;;
6292;SDS011;3179;54.350;10.102;2023-02-28T02:42:20;6.43;;;3.10;;
6292;SDS011;3179;54.350;10.102;2023-02-28T02:44:55;3.97;;;2.50;;
6292;SDS011;3179;54.350;10.102;2023-02-28T02:47:26;4.90;;;2.53;;
6292;SDS011;3179;54.350;10.102;2023-02-28T02:49:57;5.20;;;3.00;;
6292;SDS011;3179;54.350;10.102;2023-02-28T02:52:29;3.73;;;2.30;;
6292;SDS011;3179;54.350;10.102;2023-02-28T02:55:03;5.43;;;3.10;;
6292;SDS011;3179;54.350;10.102;2023-02-28T02:57:33;3.03;;;2.30;;
6292;SDS011;3179;54.350;10.102;2023-02-28T03:00:07;4.10;;;2.50;;
6292;SDS011;3179;54.350;10.102;2023-02-28T03:02:35;3.70;;;2.67;;
6292;SDS011;3179;54.350;10.102;2023-02-28T03:05:06;3.13;;;2.60;;
6292;SDS011;3179;54.350;10.102;2023-02-28T03:07:40;6.03;;;2.47;;
6292;SDS011;3179;54.350;10.102;2023-02-28T03:12:58;5.60;;;3.33;;
6292;SDS011;3179;54.350;10.102;2023-02-28T03:15:38;6.90;;;2.30;;
6292;SDS011;3179;54.350;10.102;2023-02-28T03:18:15;3.80;;;2.50;;
6292;SDS011;3179;54.350;10.102;2023-02-28T03:20:53;3.63;;;2.73;;
6292;SDS011;3179;54.350;10.102;2023-02-28T03:23:34;5.67;;;2.50;;
6292;SDS011;3179;54.350;10.102;2023-02-28T03:26:07;2.77;;;2.47;;
6292;SDS011;3179;54.350;10.102;2023-02-28T03:28:40;4.10;;;2.70;;
6292;SDS011;3179;54.350;10.102;2023-02-28T03:31:14;4.73;;;2.20;;
6292;SDS011;3179;54.350;10.102;2023-02-28T03:33:46;3.00;;;2.30;;
6292;SDS011;3179;54.350;10.102;2023-02-28T03:36:21;4.17;;;2.83;;
6292;SDS011;3179;54.350;10.102;2023-02-28T03:38:55;2.30;;;2.10;;
6292;SDS011;3179;54.350;10.102;2023-02-28T03:41:29;5.50;;;2.67;;
6292;SDS011;3179;54.350;10.102;2023-02-28T03:44:03;6.30;;;2.50;;
6292;SDS011;3179;54.350;10.102;2023-02-28T03:46:35;5.23;;;2.47;;
6292;SDS011;3179;54.350;10.102;2023-02-28T03:49:06;4.33;;;2.70;;
6292;SDS011;3179;54.350;10.102;2023-02-28T03:51:39;5.17;;;2.83;;
6292;SDS011;3179;54.350;10.102;2023-02-28T03:54:09;5.40;;;3.00;;
6292;SDS011;3179;54.350;10.102;2023-02-28T03:56:45;3.40;;;3.07;;
6292;SDS011;3179;54.350;10.102;2023-02-28T03:59:18;6.43;;;2.83;;
6292;SDS011;3179;54.350;10.102;2023-02-28T04:01:52;3.60;;;2.73;;
6292;SDS011;3179;54.350;10.102;2023-02-28T04:04:20;2.87;;;2.43;;
6292;SDS011;3179;54.350;10.102;2023-02-28T04:06:50;4.50;;;2.77;;
6292;SDS011;3179;54.350;10.102;2023-02-28T04:09:18;4.73;;;2.50;;
6292;SDS011;3179;54.350;10.102;2023-02-28T04:11:45;4.50;;;2.87;;
6292;SDS011;3179;54.350;10.102;2023-02-28T04:14:16;5.23;;;2.67;;
6292;SDS011;3179;54.350;10.102;2023-02-28T04:16:43;3.67;;;3.00;;
6292;SDS011;3179;54.350;10.102;2023-02-28T04:19:11;3.00;;;2.17;;
6292;SDS011;3179;54.350;10.102;2023-02-28T04:21:40;6.77;;;2.60;;
6292;SDS011;3179;54.350;10.102;2023-02-28T04:24:10;5.17;;;2.30;;
6292;SDS011;3179;54.350;10.102;2023-02-28T04:26:40;3.53;;;2.50;;
6292;SDS011;3179;54.350;10.102;2023-02-28T04:29:09;3.60;;;2.83;;
6292;SDS011;3179;54.350;10.102;2023-02-28T04:31:36;3.40;;;2.80;;
6292;SDS011;3179;54.350;10.102;2023-02-28T04:34:03;2.60;;;2.33;;
6292;SDS011;3179;54.350;10.102;2023-02-28T04:36:31;8.00;;;2.73;;
6292;SDS011;3179;54.350;10.102;2023-02-28T04:38:58;4.63;;;2.53;;
6292;SDS011;3179;54.350;10.102;2023-02-28T04:41:26;2.70;;;2.37;;
6292;SDS011;3179;54.350;10.102;2023-02-28T04:43:53;4.77;;;2.30;;
6292;SDS011;3179;54.350;10.102;2023-02-28T04:46:20;4.23;;;2.83;;
6292;SDS011;3179;54.350;10.102;2023-02-28T04:48:48;5.37;;;3.10;;
6292;SDS011;3179;54.350;10.102;2023-02-28T04:51:16;5.13;;;2.00;;
6292;SDS011;3179;54.350;10.102;2023-02-28T04:53:44;3.37;;;2.53;;
6292;SDS011;3179;54.350;10.102;2023-02-28T04:56:11;5.07;;;2.77;;
6292;SDS011;3179;54.350;10.102;2023-02-28T04:58:40;5.73;;;2.90;;
6292;SDS011;3179;54.350;10.102;2023-02-28T05:01:15;6.40;;;2.93;;
6292;SDS011;3179;54.350;10.102;2023-02-28T05:03:44;7.10;;;3.30;;
6292;SDS011;3179;54.350;10.102;2023-02-28T05:06:11;3.60;;;2.80;;
6292;SDS011;3179;54.350;10.102;2023-02-28T05:08:38;4.43;;;2.87;;
6292;SDS011;3179;54.350;10.102;2023-02-28T05:11:06;3.50;;;2.93;;
6292;SDS011;3179;54.350;10.102;2023-02-28T05:13:38;7.80;;;2.93;;
6292;SDS011;3179;54.350;10.102;2023-02-28T05:16:06;5.67;;;2.80;;
6292;SDS011;3179;54.350;10.102;2023-02-28T05:18:33;3.57;;;2.80;;
6292;SDS011;3179;54.350;10.102;2023-02-28T05:21:00;5.67;;;2.63;;
6292;SDS011;3179;54.350;10.102;2023-02-28T05:23:28;6.27;;;2.67;;
6292;SDS011;3179;54.350;10.102;2023-02-28T05:25:55;6.33;;;3.60;;
6292;SDS011;3179;54.350;10.102;2023-02-28T05:28:22;6.40;;;2.80;;
6292;SDS011;3179;54.350;10.102;2023-02-28T05:30:50;4.67;;;2.70;;
6292;SDS011;3179;54.350;10.102;2023-02-28T05:33:17;5.37;;;2.97;;
6292;SDS011;3179;54.350;10.102;2023-02-28T05:35:44;4.30;;;3.07;;
6292;SDS011;3179;54.350;10.102;2023-02-28T05:38:10;6.97;;;3.00;;
6292;SDS011;3179;54.350;10.102;2023-02-28T05:40:38;3.87;;;2.90;;
6292;SDS011;3179;54.350;10.102;2023-02-28T05:43:05;3.90;;;3.20;;
6292;SDS011;3179;54.350;10.102;2023-02-28T05:45:31;4.97;;;2.80;;
6292;SDS011;3179;54.350;10.102;2023-02-28T05:48:00;3.93;;;2.50;;
6292;SDS011;3179;54.350;10.102;2023-02-28T05:50:26;5.33;;;2.77;;
6292;SDS011;3179;54.350;10.102;2023-02-28T05:52:53;12.57;;;3.20;;
6292;SDS011;3179;54.350;10.102;2023-02-28T05:55:20;4.50;;;2.90;;
6292;SDS011;3179;54.350;10.102;2023-02-28T05:57:47;5.00;;;2.80;;
6292;SDS011;3179;54.350;10.102;2023-02-28T06:00:13;9.33;;;3.17;;
6292;SDS011;3179;54.350;10.102;2023-02-28T06:02:42;4.90;;;3.53;;
6292;SDS011;3179;54.350;10.102;2023-02-28T06:05:12;8.73;;;2.50;;
6292;SDS011;3179;54.350;10.102;2023-02-28T06:07:40;3.53;;;2.80;;
6292;SDS011;3179;54.350;10.102;2023-02-28T06:10:08;7.00;;;2.93;;
6292;SDS011;3179;54.350;10.102;2023-02-28T06:12:36;3.87;;;3.03;;
6292;SDS011;3179;54.350;10.102;2023-02-28T06:15:03;4.27;;;3.10;;
6292;SDS011;3179;54.350;10.102;2023-02-28T06:17:31;3.47;;;3.07;;
6292;SDS011;3179;54.350;10.102;2023-02-28T06:19:57;5.63;;;3.03;;
6292;SDS011;3179;54.350;10.102;2023-02-28T06:22:26;3.43;;;3.13;;
6292;SDS011;3179;54.350;10.102;2023-02-28T06:24:52;5.20;;;3.23;;
6292;SDS011;3179;54.350;10.102;2023-02-28T06:27:20;5.70;;;3.27;;
6292;SDS011;3179;54.350;10.102;2023-02-28T06:29:47;2.90;;;2.70;;
6292;SDS011;3179;54.350;10.102;2023-02-28T06:32:14;3.13;;;2.83;;
6292;SDS011;3179;54.350;10.102;2023-02-28T06:34:40;5.20;;;3.07;;
6292;SDS011;3179;54.350;10.102;2023-02-28T06:37:07;3.60;;;2.70;;
6292;SDS011;3179;54.350;10.102;2023-02-28T06:39:35;4.60;;;3.37;;
6292;SDS011;3179;54.350;10.102;2023-02-28T06:42:02;3.50;;;3.17;;
6292;SDS011;3179;54.350;10.102;2023-02-28T06:44:29;10.73;;;4.10;;
6292;SDS011;3179;54.350;10.102;2023-02-28T06:47:00;4.80;;;3.50;;
6292;SDS011;3179;54.350;10.102;2023-02-28T06:49:28;5.33;;;3.23;;
6292;SDS011;3179;54.350;10.102;2023-02-28T06:51:55;5.73;;;3.83;;
6292;SDS011;3179;54.350;10.102;2023-02-28T06:54:22;5.77;;;3.80;;
6292;SDS011;3179;54.350;10.102;2023-02-28T06:56:50;5.87;;;3.70;;
6292;SDS011;3179;54.350;10.102;2023-02-28T06:59:18;4.63;;;3.57;;
6292;SDS011;3179;54.350;10.102;2023-02-28T07:01:45;6.70;;;3.57;;
6292;SDS011;3179;54.350;10.102;2023-02-28T07:04:12;5.60;;;4.00;;
6292;SDS011;3179;54.350;10.102;2023-02-28T07:06:39;6.40;;;3.63;;
6292;SDS011;3179;54.350;10.102;2023-02-28T07:09:05;4.20;;;3.80;;
6292;SDS011;3179;54.350;10.102;2023-02-28T07:11:33;4.97;;;3.20;;
6292;SDS011;3179;54.350;10.102;2023-02-28T07:14:01;5.50;;;3.00;;
6292;SDS011;3179;54.350;10.102;2023-02-28T07:16:28;7.33;;;3.50;;
6292;SDS011;3179;54.350;10.102;2023-02-28T07:18:54;9.20;;;4.13;;
6292;SDS011;3179;54.350;10.102;2023-02-28T07:21:21;5.93;;;3.93;;
6292;SDS011;3179;54.350;10.102;2023-02-28T07:23:48;5.53;;;3.40;;
6292;SDS011;3179;54.350;10.102;2023-02-28T07:26:16;3.97;;;3.03;;
6292;SDS011;3179;54.350;10.102;2023-02-28T07:28:45;6.57;;;4.00;;
6292;SDS011;3179;54.350;10.102;2023-02-28T07:31:15;4.97;;;3.57;;
6292;SDS011;3179;54.350;10.102;2023-02-28T07:33:43;5.47;;;4.50;;
6292;SDS011;3179;54.350;10.102;2023-02-28T07:36:11;5.93;;;4.40;;
6292;SDS011;3179;54.350;10.102;2023-02-28T07:38:40;5.30;;;3.93;;
6292;SDS011;3179;54.350;10.102;2023-02-28T07:41:09;6.47;;;4.70;;
6292;SDS011;3179;54.350;10.102;2023-02-28T07:43:36;9.47;;;5.00;;
6292;SDS011;3179;54.350;10.102;2023-02-28T07:46:03;4.70;;;4.10;;
6292;SDS011;3179;54.350;10.102;2023-02-28T07:48:32;7.70;;;4.40;;
6292;SDS011;3179;54.350;10.102;2023-02-28T07:50:59;5.43;;;4.70;;
6292;SDS011;3179;54.350;10.102;2023-02-28T07:53:26;6.00;;;4.80;;
6292;SDS011;3179;54.350;10.102;2023-02-28T07:55:54;5.80;;;4.23;;
6292;SDS011;3179;54.350;10.102;2023-02-28T07:58:22;6.90;;;4.63;;
6292;SDS011;3179;54.350;10.102;2023-02-28T08:00:49;8.83;;;4.90;;
6292;SDS011;3179;54.350;10.102;2023-02-28T08:03:17;6.10;;;4.23;;
6292;SDS011;3179;54.350;10.102;2023-02-28T08:05:46;6.30;;;4.97;;
6292;SDS011;3179;54.350;10.102;2023-02-28T08:08:13;6.37;;;5.00;;
6292;SDS011;3179;54.350;10.102;2023-02-28T08:10:40;5.07;;;4.57;;
6292;SDS011;3179;54.350;10.102;2023-02-28T08:13:06;7.10;;;4.63;;
6292;SDS011;3179;54.350;10.102;2023-02-28T08:15:33;6.43;;;4.53;;
6292;SDS011;3179;54.350;10.102;2023-02-28T08:18:01;8.07;;;5.97;;
6292;SDS011;3179;54.350;10.102;2023-02-28T08:20:28;10.70;;;5.63;;
6292;SDS011;3179;54.350;10.102;2023-02-28T08:22:56;7.23;;;5.33;;
6292;SDS011;3179;54.350;10.102;2023-02-28T08:25:23;7.90;;;5.70;;
6292;SDS011;3179;54.350;10.102;2023-02-28T08:27:50;11.53;;;5.30;;
6292;SDS011;3179;54.350;10.102;2023-02-28T08:30:17;10.03;;;6.20;;
6292;SDS011;3179;54.350;10.102;2023-02-28T08:32:44;9.33;;;5.40;;
6292;SDS011;3179;54.350;10.102;2023-02-28T08:35:10;9.47;;;5.60;;
6292;SDS011;3179;54.350;10.102;2023-02-28T08:37:37;10.00;;;5.83;;
6292;SDS011;3179;54.350;10.102;2023-02-28T08:40:06;10.97;;;6.53;;
6292;SDS011;3179;54.350;10.102;2023-02-28T08:42:34;7.50;;;5.13;;
6292;SDS011;3179;54.350;10.102;2023-02-28T08:45:01;8.67;;;5.50;;
6292;SDS011;3179;54.350;10.102;2023-02-28T08:47:28;6.90;;;5.23;;
6292;SDS011;3179;54.350;10.102;2023-02-28T08:49:54;11.10;;;5.87;;
6292;SDS011;3179;54.350;10.102;2023-02-28T08:52:21;9.97;;;5.33;;
6292;SDS011;3179;54.350;10.102;2023-02-28T08:54:48;8.70;;;5.20;;
6292;SDS011;3179;54.350;10.102;2023-02-28T08:57:16;6.30;;;4.50;;
6292;SDS011;3179;54.350;10.102;2023-02-28T08:59:43;7.37;;;4.67;;
6292;SDS011;3179;54.350;10.102;2023-02-28T09:02:10;12.50;;;4.60;;
6292;SDS011;3179;54.350;10.102;2023-02-28T09:04:39;8.83;;;3.90;;
6292;SDS011;3179;54.350;10.102;2023-02-28T09:07:07;5.53;;;4.20;;
6292;SDS011;3179;54.350;10.102;2023-02-28T09:09:33;5.97;;;4.27;;
6292;SDS011;3179;54.350;10.102;2023-02-28T09:12:00;8.10;;;4.00;;
6292;SDS011;3179;54.350;10.102;2023-02-28T09:14:28;9.27;;;3.83;;
6292;SDS011;3179;54.350;10.102;2023-02-28T09:16:55;5.20;;;3.53;;
6292;SDS011;3179;54.350;10.102;2023-02-28T09:19:22;4.53;;;3.30;;
6292;SDS011;3179;54.350;10.102;2023-02-28T09:21:49;8.13;;;3.73;;
6292;SDS011;3179;54.350;10.102;2023-02-28T09:24:17;9.90;;;3.40;;
6292;SDS011;3179;54.350;10.102;2023-02-28T09:26:45;5.80;;;3.20;;
6292;SDS011;3179;54.350;10.102;2023-02-28T09:29:12;3.13;;;2.63;;
6292;SDS011;3179;54.350;10.102;2023-02-28T09:31:41;6.23;;;3.27;;
6292;SDS011;3179;54.350;10.102;2023-02-28T09:34:08;4.47;;;3.13;;
6292;SDS011;3179;54.350;10.102;2023-02-28T09:36:35;3.73;;;2.80;;
6292;SDS011;3179;54.350;10.102;2023-02-28T09:39:03;6.07;;;3.07;;
6292;SDS011;3179;54.350;10.102;2023-02-28T09:41:31;4.33;;;3.40;;
6292;SDS011;3179;54.350;10.102;2023-02-28T09:44:05;6.50;;;3.80;;
6292;SDS011;3179;54.350;10.102;2023-02-28T09:46:37;4.27;;;3.03;;
6292;SDS011;3179;54.350;10.102;2023-02-28T09:49:10;3.47;;;3.00;;
6292;SDS011;3179;54.350;10.102;2023-02-28T09:51:42;4.23;;;2.70;;
6292;SDS011;3179;54.350;10.102;2023-02-28T09:54:15;4.47;;;2.90;;
6292;SDS011;3179;54.350;10.102;2023-02-28T09:56:44;3.37;;;2.30;;
6292;SDS011;3179;54.350;10.102;2023-02-28T09:59:18;4.30;;;3.00;;
6292;SDS011;3179;54.350;10.102;2023-02-28T10:02:13;5.13;;;2.33;;
6292;SDS011;3179;54.350;10.102;2023-02-28T10:04:53;6.20;;;2.27;;
6292;SDS011;3179;54.350;10.102;2023-02-28T10:07:30;5.80;;;2.60;;
6292;SDS011;3179;54.350;10.102;2023-02-28T10:10:14;3.27;;;2.40;;
6292;SDS011;3179;54.350;10.102;2023-02-28T10:12:46;4.83;;;1.97;;
6292;SDS011;3179;54.350;10.102;2023-02-28T10:15:14;4.33;;;2.03;;
6292;SDS011;3179;54.350;10.102;2023-02-28T10:17:43;14.03;;;3.63;;
6292;SDS011;3179;54.350;10.102;2023-02-28T10:20:17;3.53;;;2.43;;
6292;SDS011;3179;54.350;10.102;2023-02-28T10:22:50;3.73;;;1.70;;
6292;SDS011;3179;54.350;10.102;2023-02-28T10:25:20;1.70;;;1.37;;
6292;SDS011;3179;54.350;10.102;2023-02-28T10:27:49;1.67;;;1.17;;
6292;SDS011;3179;54.350;10.102;2023-02-28T10:30:19;4.20;;;1.57;;
6292;SDS011;3179;54.350;10.102;2023-02-28T10:32:47;2.33;;;1.70;;
6292;SDS011;3179;54.350;10.102;2023-02-28T10:35:20;3.73;;;1.90;;
6292;SDS011;3179;54.350;10.102;2023-02-28T10:37:49;4.60;;;2.00;;
6292;SDS011;3179;54.350;10.102;2023-02-28T10:40:26;1.97;;;1.43;;
6292;SDS011;3179;54.350;10.102;2023-02-28T10:42:56;4.13;;;1.70;;
6292;SDS011;3179;54.350;10.102;2023-02-28T10:45:24;3.57;;;2.37;;
6292;SDS011;3179;54.350;10.102;2023-02-28T10:47:53;4.40;;;1.73;;
6292;SDS011;3179;54.350;10.102;2023-02-28T10:50:30;3.13;;;2.13;;
6292;SDS011;3179;54.350;10.102;2023-02-28T10:55:59;3.70;;;2.23;;
6292;SDS011;3179;54.350;10.102;2023-02-28T10:58:27;3.43;;;2.13;;
6292;SDS011;3179;54.350;10.102;2023-02-28T11:00:55;3.20;;;2.30;;
6292;SDS011;3179;54.350;10.102;2023-02-28T11:03:24;3.90;;;2.13;;
6292;SDS011;3179;54.350;10.102;2023-02-28T11:05:57;2.83;;;2.33;;
6292;SDS011;3179;54.350;10.102;2023-02-28T11:08:24;3.20;;;1.80;;
6292;SDS011;3179;54.350;10.102;2023-02-28T11:10:54;2.77;;;1.90;;
6292;SDS011;3179;54.350;10.102;2023-02-28T11:13:24;2.30;;;1.90;;
6292;SDS011;3179;54.350;10.102;2023-02-28T11:15:54;3.50;;;2.40;;
6292;SDS011;3179;54.350;10.102;2023-02-28T11:18:24;2.17;;;1.87;;
6292;SDS011;3179;54.350;10.102;2023-02-28T11:20:57;2.17;;;2.00;;
6292;SDS011;3179;54.350;10.102;2023-02-28T11:23:26;2.20;;;2.00;;
6292;SDS011;3179;54.350;10.102;2023-02-28T11:25:55;3.10;;;2.00;;
6292;SDS011;3179;54.350;10.102;2023-02-28T11:28:26;3.40;;;2.00;;
6292;SDS011;3179;54.350;10.102;2023-02-28T11:31:04;2.10;;;1.90;;
6292;SDS011;3179;54.350;10.102;2023-02-28T11:33:41;2.93;;;2.10;;
6292;SDS011;3179;54.350;10.102;2023-02-28T11:36:12;3.07;;;2.17;;
6292;SDS011;3179;54.350;10.102;2023-02-28T11:38:42;2.83;;;2.53;;
6292;SDS011;3179;54.350;10.102;2023-02-28T11:41:14;4.33;;;2.10;;
6292;SDS011;3179;54.350;10.102;2023-02-28T11:43:59;2.50;;;2.03;;
6292;SDS011;3179;54.350;10.102;2023-02-28T11:46:37;2.30;;;1.70;;
6292;SDS011;3179;54.350;10.102;2023-02-28T11:49:14;2.63;;;2.17;;
6292;SDS011;3179;54.350;10.102;2023-02-28T11:51:52;2.40;;;1.97;;
6292;SDS011;3179;54.350;10.102;2023-02-28T11:54:26;2.30;;;1.90;;
6292;SDS011;3179;54.350;10.102;2023-02-28T11:57:00;2.73;;;1.83;;
6292;SDS011;3179;54.350;10.102;2023-02-28T11:59:38;3.27;;;2.10;;
6292;SDS011;3179;54.350;10.102;2023-02-28T12:02:23;1.60;;;1.50;;
6292;SDS011;3179;54.350;10.102;2023-02-28T12:04:56;3.43;;;1.93;;
6292;SDS011;3179;54.350;10.102;2023-02-28T12:07:55;4.27;;;2.07;;
6292;SDS011;3179;54.350;10.102;2023-02-28T12:10:31;3.97;;;1.90;;
6292;SDS011;3179;54.350;10.102;2023-02-28T12:13:04;1.70;;;1.60;;
6292;SDS011;3179;54.350;10.102;2023-02-28T12:15:57;5.03;;;1.60;;
6292;SDS011;3179;54.350;10.102;2023-02-28T12:18:47;2.17;;;1.97;;
6292;SDS011;3179;54.350;10.102;2023-02-28T12:21:25;1.90;;;1.50;;
6292;SDS011;3179;54.350;10.102;2023-02-28T12:24:07;2.00;;;1.37;;
6292;SDS011;3179;54.350;10.102;2023-02-28T12:26:55;2.40;;;1.90;;
6292;SDS011;3179;54.350;10.102;2023-02-28T12:29:27;1.57;;;1.47;;
6292;SDS011;3179;54.350;10.102;2023-02-28T12:31:56;2.97;;;1.87;;
6292;SDS011;3179;54.350;10.102;2023-02-28T12:34:28;1.97;;;1.83;;
6292;SDS011;3179;54.350;10.102;2023-02-28T12:37:00;3.47;;;1.73;;
6292;SDS011;3179;54.350;10.102;2023-02-28T12:39:33;1.40;;;1.30;;
6292;SDS011;3179;54.350;10.102;2023-02-28T12:42:03;4.27;;;1.40;;
6292;SDS011;3179;54.350;10.102;2023-02-28T12:44:39;2.13;;;1.30;;
6292;SDS011;3179;54.350;10.102;2023-02-28T12:47:12;2.23;;;1.50;;
6292;SDS011;3179;54.350;10.102;2023-02-28T12:49:42;1.87;;;1.70;;
6292;SDS011;3179;54.350;10.102;2023-02-28T12:52:17;2.33;;;1.70;;
6292;SDS011;3179;54.350;10.102;2023-02-28T12:54:55;4.40;;;1.77;;
6292;SDS011;3179;54.350;10.102;2023-02-28T12:57:32;1.83;;;1.63;;
6292;SDS011;3179;54.350;10.102;2023-02-28T13:00:03;1.53;;;1.20;;
6292;SDS011;3179;54.350;10.102;2023-02-28T13:11:40;2.47;;;1.83;;
6292;SDS011;3179;54.350;10.102;2023-02-28T13:14:18;3.17;;;1.30;;
6292;SDS011;3179;54.350;10.102;2023-02-28T13:16:56;4.30;;;1.90;;
6292;SDS011;3179;54.350;10.102;2023-02-28T13:19:25;2.60;;;1.47;;
6292;SDS011;3179;54.350;10.102;2023-02-28T13:21:54;3.90;;;1.77;;
6292;SDS011;3179;54.350;10.102;2023-02-28T13:24:41;2.30;;;2.00;;
6292;SDS011;3179;54.350;10.102;2023-02-28T13:27:19;2.00;;;1.53;;
6292;SDS011;3179;54.350;10.102;2023-02-28T13:29:49;2.23;;;1.80;;
6292;SDS011;3179;54.350;10.102;2023-02-28T13:32:19;2.80;;;1.73;;
6292;SDS011;3179;54.350;10.102;2023-02-28T13:44:07;2.90;;;1.70;;
6292;SDS011;3179;54.350;10.102;2023-02-28T13:46:35;2.10;;;1.60;;
6292;SDS011;3179;54.350;10.102;2023-02-28T13:49:24;1.90;;;1.30;;
6292;SDS011;3179;54.350;10.102;2023-02-28T13:51:53;4.63;;;1.77;;
6292;SDS011;3179;54.350;10.102;2023-02-28T13:54:35;3.37;;;1.87;;
6292;SDS011;3179;54.350;10.102;2023-02-28T13:57:14;1.70;;;1.60;;
6292;SDS011;3179;54.350;10.102;2023-02-28T13:59:54;2.30;;;1.57;;
6292;SDS011;3179;54.350;10.102;2023-02-28T14:02:35;1.53;;;1.43;;
6292;SDS011;3179;54.350;10.102;2023-02-28T14:05:23;3.17;;;1.87;;
6292;SDS011;3179;54.350;10.102;2023-02-28T14:07:52;1.80;;;1.00;;
6292;SDS011;3179;54.350;10.102;2023-02-28T14:10:23;2.07;;;1.57;;
6292;SDS011;3179;54.350;10.102;2023-02-28T14:13:00;1.63;;;1.40;;
6292;SDS011;3179;54.350;10.102;2023-02-28T14:15:34;1.67;;;1.30;;
6292;SDS011;3179;54.350;10.102;2023-02-28T14:18:16;1.37;;;1.20;;
6292;SDS011;3179;54.350;10.102;2023-02-28T14:20:47;3.30;;;1.40;;
6292;SDS011;3179;54.350;10.102;2023-02-28T14:23:17;1.60;;;1.50;;
6292;SDS011;3179;54.350;10.102;2023-02-28T14:25:54;1.60;;;1.50;;
6292;SDS011;3179;54.350;10.102;2023-02-28T14:28:32;4.40;;;1.70;;
6292;SDS011;3179;54.350;10.102;2023-02-28T14:31:13;1.40;;;1.30;;
6292;SDS011;3179;54.350;10.102;2023-02-28T14:34:04;1.43;;;1.33;;
6292;SDS011;3179;54.350;10.102;2023-02-28T14:36:43;1.47;;;1.37;;
6292;SDS011;3179;54.350;10.102;2023-02-28T14:39:11;1.90;;;1.70;;
6292;SDS011;3179;54.350;10.102;2023-02-28T14:41:41;1.63;;;1.40;;
6292;SDS011;3179;54.350;10.102;2023-02-28T14:44:13;1.50;;;1.40;;
6292;SDS011;3179;54.350;10.102;2023-02-28T14:46:44;4.10;;;1.50;;
6292;SDS011;3179;54.350;10.102;2023-02-28T14:49:17;2.33;;;1.73;;
6292;SDS011;3179;54.350;10.102;2023-02-28T14:51:46;2.20;;;1.43;;
6292;SDS011;3179;54.350;10.102;2023-02-28T14:54:15;2.40;;;1.83;;
6292;SDS011;3179;54.350;10.102;2023-02-28T14:56:48;1.90;;;1.63;;
6292;SDS011;3179;54.350;10.102;2023-02-28T15:02:19;1.50;;;1.40;;
6292;SDS011;3179;54.350;10.102;2023-02-28T15:04:54;3.30;;;1.90;;
6292;SDS011;3179;54.350;10.102;2023-02-28T15:07:23;2.80;;;2.30;;
6292;SDS011;3179;54.350;10.102;2023-02-28T15:10:15;2.60;;;2.17;;
6292;SDS011;3179;54.350;10.102;2023-02-28T15:12:45;2.93;;;2.07;;
6292;SDS011;3179;54.350;10.102;2023-02-28T15:15:18;2.10;;;1.90;;
6292;SDS011;3179;54.350;10.102;2023-02-28T15:17:50;2.10;;;1.87;;
6292;SDS011;3179;54.350;10.102;2023-02-28T15:20:19;2.90;;;1.87;;
6292;SDS011;3179;54.350;10.102;2023-02-28T15:22:46;2.53;;;1.90;;
6292;SDS011;3179;54.350;10.102;2023-02-28T15:25:19;3.07;;;2.77;;
6292;SDS011;3179;54.350;10.102;2023-02-28T15:27:47;2.30;;;2.10;;
6292;SDS011;3179;54.350;10.102;2023-02-28T15:30:17;3.63;;;2.47;;
6292;SDS011;3179;54.350;10.102;2023-02-28T15:35:41;2.70;;;1.87;;
6292;SDS011;3179;54.350;10.102;2023-02-28T15:38:13;2.77;;;2.37;;
6292;SDS011;3179;54.350;10.102;2023-02-28T15:40:42;2.33;;;2.13;;
6292;SDS011;3179;54.350;10.102;2023-02-28T15:43:18;4.13;;;2.57;;
6292;SDS011;3179;54.350;10.102;2023-02-28T15:45:50;2.63;;;2.10;;
6292;SDS011;3179;54.350;10.102;2023-02-28T15:48:19;3.40;;;2.83;;
6292;SDS011;3179;54.350;10.102;2023-02-28T15:50:50;2.57;;;2.37;;
6292;SDS011;3179;54.350;10.102;2023-02-28T15:53:21;2.60;;;2.37;;
6292;SDS011;3179;54.350;10.102;2023-02-28T15:55:54;3.33;;;1.80;;
6292;SDS011;3179;54.350;10.102;2023-02-28T15:58:24;5.20;;;2.40;;